createdAt,value
2023-09-06T00:02:05.353Z,30.3
2023-09-06T00:07:59.471Z,30.3
2023-09-06T00:13:51.872Z,30.3
2023-09-06T00:19:44.324Z,30.3
2023-09-06T00:25:37.114Z,30.3
2023-09-06T00:31:29.478Z,30.3
2023-09-06T00:37:21.630Z,30.3
2023-09-06T00:43:14.754Z,30.3
2023-09-06T00:49:06.954Z,30.3
2023-09-06T00:54:58.065Z,30.3
2023-09-06T01:00:50.402Z,30.3
2023-09-06T01:06:43.882Z,30.3
2023-09-06T01:12:34.337Z,30.3
2023-09-06T01:18:27.930Z,30.3
2023-09-06T01:24:19.917Z,30.3
2023-09-06T01:30:12.222Z,30.3
2023-09-06T01:36:06.005Z,30.3
2023-09-06T01:41:57.906Z,30.3
2023-09-06T01:47:49.903Z,30.3
2023-09-06T01:53:42.071Z,30.3
2023-09-06T01:59:34.591Z,30.3
2023-09-06T02:04:56.360Z,30.3
2023-09-06T02:10:48.613Z,30.3
2023-09-06T02:16:40.437Z,30.2
2023-09-06T02:22:17.662Z,30.2
2023-09-06T02:28:09.626Z,30.2
2023-09-06T02:34:02.769Z,30.2
2023-09-06T02:39:53.907Z,30.2
2023-09-06T02:45:46.356Z,30.2
2023-09-06T02:51:39.148Z,30.3
2023-09-06T02:57:31.096Z,30.3
2023-09-06T03:03:24.445Z,30.3
2023-09-06T03:09:16.678Z,30.3
2023-09-06T03:15:08.554Z,30.3
2023-09-06T03:21:02.127Z,30.3
2023-09-06T03:26:53.973Z,30.3
2023-09-06T03:32:46.508Z,30.2
2023-09-06T03:38:39.343Z,30.1
2023-09-06T03:44:32.084Z,30.1
2023-09-06T03:50:25.600Z,30.1
2023-09-06T03:56:03.012Z,30
2023-09-06T04:01:55.835Z,30
2023-09-06T04:07:48.837Z,30
2023-09-06T04:13:44.113Z,29.9
2023-09-06T04:19:37.171Z,29.9
2023-09-06T04:25:27.627Z,29.9
2023-09-06T04:31:21.467Z,29.9
2023-09-06T04:37:13.199Z,29.9
2023-09-06T04:43:04.631Z,29.9
2023-09-06T04:49:01.816Z,29.9
2023-09-06T04:54:38.714Z,29.9
2023-09-06T05:00:30.871Z,29.9
2023-09-06T05:06:24.347Z,29.9
2023-09-06T05:12:16.417Z,29.9
2023-09-06T05:18:08.725Z,29.9
2023-09-06T05:24:01.139Z,29.9
2023-09-06T05:29:37.344Z,29.9
2023-09-06T05:35:13.340Z,29.8
2023-09-06T05:40:50.598Z,29.9
2023-09-06T05:47:02.803Z,29.9
2023-09-06T05:52:57.902Z,29.9
2023-09-06T05:58:51.915Z,29.9
2023-09-06T06:04:44.896Z,29.9
2023-09-06T06:10:35.681Z,29.9
2023-09-06T06:16:39.762Z,29.8
2023-09-06T06:22:40.011Z,29.8
2023-09-06T06:28:32.148Z,29.8
2023-09-06T06:34:28.421Z,29.8
2023-09-06T06:40:20.710Z,29.4
2023-09-06T06:46:12.027Z,28.4
2023-09-06T06:52:05.979Z,33.4
2023-09-06T06:58:01.837Z,31.8
2023-09-06T07:03:53.532Z,30.6
2023-09-06T07:09:46.629Z,30.1
2023-09-06T07:15:39.117Z,33.9
2023-09-06T07:21:35.817Z,37.9
2023-09-06T07:27:27.314Z,40.1
2023-09-06T07:33:19.770Z,40.4
2023-09-06T07:39:13.392Z,40.5
2023-09-06T07:45:05.982Z,40.9
2023-09-06T07:51:00.667Z,41.2
2023-09-06T07:56:52.380Z,42.2
2023-09-06T08:02:58.410Z,42.4
2023-09-06T08:08:52.733Z,42.9
2023-09-06T08:14:45.369Z,43.9
2023-09-06T08:20:25.656Z,45.6
2023-09-06T08:26:31.730Z,47.3
2023-09-06T08:32:26.099Z,48.8
2023-09-06T08:38:19.545Z,49.9
2023-09-06T08:44:11.840Z,50.8
2023-09-06T08:49:49.507Z,51.6
2023-09-06T08:55:28.541Z,52.5
2023-09-06T09:01:22.833Z,51.7
2023-09-06T09:07:32.069Z,42.4
2023-09-06T09:13:25.066Z,42.4
2023-09-06T09:19:36.142Z,43
2023-09-06T09:25:29.121Z,43.3
2023-09-06T09:31:23.382Z,44.1
2023-09-06T09:37:16.069Z,44.6
2023-09-06T09:43:21.654Z,45.1
2023-09-06T09:49:32.186Z,45.3
2023-09-06T09:55:35.306Z,45.5
2023-09-06T10:01:11.200Z,45.6
2023-09-06T10:07:15.299Z,45.6
2023-09-06T10:13:23.641Z,45.4
2023-09-06T10:19:19.402Z,45.1
2023-09-06T10:25:27.892Z,44.8
2023-09-06T10:31:40.549Z,44.6
2023-09-06T10:37:32.296Z,44.4
2023-09-06T10:43:24.624Z,44.3
2023-09-06T10:49:17.906Z,44.1
2023-09-06T10:54:58.212Z,44
2023-09-06T11:00:35.484Z,44
2023-09-06T11:06:43.073Z,43.9
2023-09-06T11:12:53.640Z,43.7
2023-09-06T11:18:47.169Z,43.3
2023-09-06T11:24:39.733Z,42.9
2023-09-06T11:30:16.838Z,42.6
2023-09-06T11:36:10.150Z,42.3
2023-09-06T11:42:01.718Z,42.3
2023-09-06T11:47:54.011Z,43.1
2023-09-06T11:54:02.552Z,43.9
2023-09-06T11:59:55.740Z,43.7
2023-09-06T12:06:03.939Z,43.3
2023-09-06T12:11:57.793Z,42.8
2023-09-06T12:17:37.948Z,42.3
2023-09-06T12:23:14.797Z,42
2023-09-06T12:28:51.711Z,41.8
2023-09-06T12:34:56.190Z,41.6
2023-09-06T12:40:49.875Z,41.5
2023-09-06T12:46:45.160Z,41.4
2023-09-06T12:52:37.145Z,41.3
2023-09-06T12:58:32.636Z,41.2
2023-09-06T13:04:25.977Z,41.1
2023-09-06T13:10:18.471Z,40.9
2023-09-06T13:15:58.538Z,40.5
2023-09-06T13:21:52.567Z,40.3
2023-09-06T13:27:44.546Z,39.9
2023-09-06T13:33:37.530Z,39.5
2023-09-06T13:39:30.528Z,38.6
2023-09-06T13:45:25.233Z,36.9
2023-09-06T13:51:18.323Z,35.8
2023-09-06T13:57:10.838Z,35.1
2023-09-06T14:02:48.410Z,34.4
2023-09-06T14:08:41.045Z,34
2023-09-06T14:14:33.437Z,33.6
2023-09-06T14:20:10.296Z,33.3
2023-09-06T14:26:02.594Z,33.1
2023-09-06T14:31:56.469Z,32.9
2023-09-06T14:37:48.947Z,32.6
2023-09-06T14:43:25.638Z,32.5
2023-09-06T14:49:19.250Z,32.3
2023-09-06T14:55:10.431Z,32.2
2023-09-06T15:00:51.501Z,32.1
2023-09-06T15:07:08.887Z,32.1
2023-09-06T15:13:00.804Z,31.9
2023-09-06T15:18:36.782Z,31.9
2023-09-06T15:24:41.340Z,31.8
2023-09-06T15:30:32.670Z,31.8
2023-09-06T15:36:24.450Z,31.7
2023-09-06T15:42:15.807Z,31.6
2023-09-06T15:48:07.490Z,31.6
2023-09-06T15:54:00.073Z,31.5
2023-09-06T15:59:52.349Z,31.4
2023-09-06T16:06:03.737Z,31.4
2023-09-06T16:11:56.411Z,31.3
2023-09-06T16:17:52.085Z,31.4
2023-09-06T16:23:46.352Z,31.4
2023-09-06T16:29:37.984Z,31.3
2023-09-06T16:35:32.879Z,31.3
2023-09-06T16:41:25.423Z,31.2
2023-09-06T16:47:16.818Z,31.1
2023-09-06T16:53:11.737Z,31.1
2023-09-06T16:59:03.819Z,31.1
2023-09-06T17:04:56.602Z,31
2023-09-06T17:10:48.740Z,30.9
2023-09-06T17:16:40.310Z,30.9
2023-09-06T17:22:33.702Z,30.9
2023-09-06T17:28:36.003Z,30.8
2023-09-06T17:34:27.587Z,30.8
2023-09-06T17:40:03.062Z,30.8
2023-09-06T17:45:55.152Z,30.7
2023-09-06T17:51:49.409Z,30.7
2023-09-06T17:57:40.481Z,30.7
2023-09-06T18:03:37.149Z,30.6
2023-09-06T18:09:31.649Z,30.6
2023-09-06T18:15:23.212Z,30.6
2023-09-06T18:21:15.919Z,30.6
2023-09-06T18:27:23.321Z,30.6
2023-09-06T18:33:01.382Z,30.5
2023-09-06T18:38:37.429Z,30.5
2023-09-06T18:44:29.416Z,30.4
2023-09-06T18:50:07.561Z,30.4
2023-09-06T18:55:59.669Z,30.4
2023-09-06T19:02:03.630Z,30.4
2023-09-06T19:07:57.470Z,30.4
2023-09-06T19:13:49.896Z,30.4
2023-09-06T19:19:44.036Z,30.4
2023-09-06T19:25:35.159Z,30.3
2023-09-06T19:31:28.485Z,30.3
2023-09-06T19:37:24.484Z,30.3
2023-09-06T19:43:16.315Z,30.3
2023-09-06T19:49:11.037Z,30.2
2023-09-06T19:55:02.630Z,29.9
2023-09-06T20:00:53.615Z,29.7
2023-09-06T20:06:49.343Z,29.6
2023-09-06T20:12:25.848Z,29.6
2023-09-06T20:18:04.243Z,29.6
2023-09-06T20:23:55.971Z,29.5
2023-09-06T20:29:47.620Z,29.5
2023-09-06T20:35:39.460Z,29.6
2023-09-06T20:41:32.096Z,29.4
2023-09-06T20:47:24.029Z,29.4
2023-09-06T20:53:16.315Z,29.4
2023-09-06T20:59:07.933Z,29.3
2023-09-06T21:05:03.597Z,29.3
2023-09-06T21:10:38.715Z,29.3
2023-09-06T21:16:15.923Z,29.3
2023-09-06T21:21:54.329Z,29.3
2023-09-06T21:27:45.301Z,29.3
2023-09-06T21:33:48.381Z,29.3
2023-09-06T21:39:39.928Z,29.3
2023-09-06T21:45:45.360Z,29.3
2023-09-06T21:51:38.938Z,29.3
2023-09-06T21:57:30.776Z,29.2
2023-09-06T22:03:38.265Z,29.2
2023-09-06T22:09:31.115Z,29.2
2023-09-06T22:15:22.894Z,29.2
2023-09-06T22:21:14.556Z,29.2
2023-09-06T22:27:06.785Z,29.1
2023-09-06T22:32:59.956Z,29.1
2023-09-06T22:38:51.236Z,29.1
2023-09-06T22:44:29.045Z,29.1
2023-09-06T22:50:35.538Z,29.1
2023-09-06T22:56:27.799Z,29.1
2023-09-06T23:02:21.200Z,29.1
2023-09-06T23:08:16.340Z,29.1
2023-09-06T23:13:52.997Z,29.1
2023-09-06T23:19:30.487Z,29.1
2023-09-06T23:25:23.197Z,29.1
2023-09-06T23:30:59.689Z,29.1
2023-09-06T23:36:53.102Z,29.1
2023-09-06T23:42:30.470Z,29.1
2023-09-06T23:48:07.182Z,29.1
2023-09-06T23:53:44.351Z,29.1
2023-09-06T23:59:48.867Z,29.1
